createdAt,value
2018-12-29T00:00:09.707Z,8.60
2018-12-29T00:05:29.434Z,8.64
2018-12-29T00:08:15.863Z,8.51
2018-12-29T00:10:42.095Z,8.67
2018-12-29T00:13:41.753Z,8.56
2018-12-29T00:16:23.223Z,8.44
2018-12-29T00:19:04.667Z,8.47
2018-12-29T00:21:30.791Z,8.41
2018-12-29T00:24:16.725Z,8.47
2018-12-29T00:27:00.551Z,8.42
2018-12-29T00:29:43.468Z,8.47
2018-12-29T00:32:26.624Z,8.48
2018-12-29T00:35:12.808Z,8.43
2018-12-29T00:41:10.148Z,8.38
2018-12-29T00:43:51.341Z,8.43
2018-12-29T00:46:53.144Z,8.35
2018-12-29T00:49:19.217Z,8.30
2018-12-29T00:52:00.218Z,8.35
2018-12-29T00:54:42.164Z,8.31
2018-12-29T00:57:08.219Z,8.22
2018-12-29T00:59:40.652Z,8.35
2018-12-29T01:02:33.416Z,8.43
2018-12-29T01:04:59.457Z,8.39
2018-12-29T01:07:45.336Z,8.38
2018-12-29T01:13:53.692Z,8.30
2018-12-29T01:16:40.630Z,8.31
2018-12-29T01:19:23.742Z,8.24
2018-12-29T01:22:09.908Z,8.38
2018-12-29T01:27:45.136Z,8.34
2018-12-29T01:36:03.786Z,8.28
2018-12-29T01:38:29.871Z,8.32
2018-12-29T01:41:13.682Z,8.34
2018-12-29T01:43:59.981Z,8.35
2018-12-29T01:46:43.305Z,8.28
2018-12-29T01:49:33.366Z,8.32
2018-12-29T01:52:13.757Z,8.28
2018-12-29T01:55:13.603Z,8.32
2018-12-29T01:57:59.603Z,8.41
2018-12-29T02:00:25.713Z,8.38
2018-12-29T02:03:10.297Z,8.36
2018-12-29T02:18:53.345Z,8.29
2018-12-29T02:25:03.736Z,8.22
2018-12-29T02:31:10.300Z,8.18
2018-12-29T02:33:53.358Z,8.17
2018-12-29T02:36:36.365Z,8.14
2018-12-29T02:39:19.509Z,8.21
2018-12-29T02:44:56.630Z,8.15
2018-12-29T02:50:08.307Z,7.98
2018-12-29T02:55:49.934Z,8.13
2018-12-29T02:58:15.952Z,8.06
2018-12-29T03:00:59.712Z,8.08
2018-12-29T03:03:45.902Z,8.17
2018-12-29T03:06:29.271Z,8.11
2018-12-29T03:09:10.492Z,8.06
2018-12-29T03:11:36.561Z,8.07
2018-12-29T03:14:22.121Z,8.00
2018-12-29T03:17:08.662Z,8.04
2018-12-29T03:19:54.920Z,8.01
2018-12-29T03:22:21.049Z,8.11
2018-12-29T03:25:04.187Z,8.13
2018-12-29T03:27:44.325Z,8.14
2018-12-29T03:30:27.541Z,8.14
2018-12-29T03:33:10.660Z,8.11
2018-12-29T03:35:36.834Z,8.15
2018-12-29T03:44:28.320Z,8.16
2018-12-29T03:47:11.418Z,8.05
2018-12-29T03:49:54.459Z,7.97
2018-12-29T03:52:35.698Z,8.02
2018-12-29T03:55:21.657Z,8.03
2018-12-29T03:58:08.536Z,8.09
2018-12-29T04:00:54.716Z,8.22
2018-12-29T04:03:20.855Z,8.07
2018-12-29T04:06:03.824Z,8.03
2018-12-29T04:08:45.018Z,8.15
2018-12-29T04:14:56.335Z,8.20
2018-12-29T04:17:37.353Z,8.24
2018-12-29T04:20:20.497Z,8.24
2018-12-29T04:22:46.638Z,8.13
2018-12-29T04:26:12.497Z,8.18
2018-12-29T04:28:38.643Z,8.26
2018-12-29T04:31:04.787Z,8.16
2018-12-29T04:33:30.809Z,8.18
2018-12-29T04:39:47.171Z,8.23
2018-12-29T04:42:30.271Z,8.26
2018-12-29T04:45:29.195Z,8.21
2018-12-29T04:47:55.215Z,8.22
2018-12-29T04:50:21.233Z,8.15
2018-12-29T04:53:04.461Z,8.24
2018-12-29T04:55:30.551Z,8.19
2018-12-29T04:57:56.563Z,8.27
2018-12-29T05:00:39.820Z,8.09
2018-12-29T05:03:22.809Z,8.13
2018-12-29T05:06:04.104Z,8.17
2018-12-29T05:08:30.243Z,8.19
2018-12-29T05:11:16.245Z,8.15
2018-12-29T05:17:46.687Z,8.11
2018-12-29T05:20:37.148Z,8.21
2018-12-29T05:23:03.148Z,8.15
2018-12-29T05:25:50.447Z,8.23
2018-12-29T05:28:31.864Z,8.20
2018-12-29T05:34:36.980Z,8.23
2018-12-29T05:40:04.252Z,8.13
2018-12-29T05:42:44.329Z,8.14
2018-12-29T05:45:10.356Z,8.13
2018-12-29T05:47:36.366Z,8.14
2018-12-29T05:50:17.970Z,8.11
2018-12-29T05:52:44.063Z,8.16
2018-12-29T05:59:34.346Z,8.23
2018-12-29T06:02:15.659Z,8.27
2018-12-29T06:05:02.728Z,8.24
2018-12-29T06:10:43.477Z,8.18
2018-12-29T06:16:19.721Z,8.23
2018-12-29T06:21:54.008Z,8.16
2018-12-29T06:24:37.182Z,8.19
2018-12-29T06:30:32.664Z,8.15
2018-12-29T06:33:18.785Z,8.11
2018-12-29T06:36:00.052Z,8.14
2018-12-29T06:42:10.316Z,8.17
2018-12-29T06:47:42.856Z,8.12
2018-12-29T06:53:56.916Z,8.46
2018-12-29T07:02:00.865Z,8.24
2018-12-29T07:04:26.887Z,8.17
2018-12-29T07:12:52.154Z,8.19
2018-12-29T07:15:33.698Z,8.22
2018-12-29T07:18:16.888Z,8.24
2018-12-29T07:21:03.691Z,8.29
2018-12-29T07:26:41.568Z,8.30
2018-12-29T07:32:50.903Z,8.23
2018-12-29T07:35:17.046Z,8.41
2018-12-29T07:37:49.205Z,8.39
2018-12-29T07:40:35.142Z,8.44
2018-12-29T07:43:17.006Z,8.26
2018-12-29T07:45:43.399Z,8.21
2018-12-29T07:52:06.080Z,8.44
2018-12-29T07:54:32.229Z,8.45
2018-12-29T07:56:58.333Z,8.49
2018-12-29T08:05:37.373Z,8.44
2018-12-29T08:08:03.641Z,8.46
2018-12-29T08:10:50.372Z,8.58
2018-12-29T08:13:16.401Z,8.66
2018-12-29T08:15:57.587Z,8.66
2018-12-29T08:18:40.780Z,8.67
2018-12-29T08:27:22.807Z,8.76
2018-12-29T08:30:06.035Z,8.73
2018-12-29T08:32:32.084Z,8.79
2018-12-29T08:34:58.092Z,8.81
2018-12-29T08:37:40.946Z,8.85
2018-12-29T08:43:46.281Z,8.85
2018-12-29T08:46:30.477Z,8.90
2018-12-29T08:58:21.000Z,8.96
2018-12-29T09:01:02.154Z,9.01
2018-12-29T09:03:45.203Z,9.14
2018-12-29T09:08:56.940Z,9.19
2018-12-29T09:11:38.023Z,9.19
2018-12-29T09:14:04.094Z,9.29
2018-12-29T09:16:50.105Z,9.33
2018-12-29T09:19:37.072Z,9.36
2018-12-29T09:22:03.083Z,9.47
2018-12-29T09:24:44.980Z,9.46
2018-12-29T09:27:11.078Z,9.55
2018-12-29T09:32:44.780Z,9.38
2018-12-29T09:35:30.972Z,9.31
2018-12-29T09:41:12.518Z,9.51
2018-12-29T09:43:53.215Z,9.34
2018-12-29T09:49:11.677Z,9.30
2018-12-29T09:51:54.726Z,9.40
2018-12-29T09:54:37.832Z,9.19
2018-12-29T09:57:03.843Z,9.46
2018-12-29T09:59:47.514Z,9.47
2018-12-29T10:02:13.544Z,9.30
2018-12-29T10:08:27.008Z,9.45
2018-12-29T10:11:10.263Z,9.49
2018-12-29T10:13:53.374Z,9.44
2018-12-29T10:19:26.715Z,9.78
2018-12-29T10:25:05.874Z,9.76
2018-12-29T10:27:31.911Z,9.74
2018-12-29T10:30:13.198Z,9.82
2018-12-29T10:32:56.416Z,9.89
2018-12-29T10:38:47.836Z,9.65
2018-12-29T10:41:36.233Z,9.49
2018-12-29T10:44:04.222Z,9.51
2018-12-29T10:49:59.249Z,9.63
2018-12-29T10:52:45.304Z,9.42
2018-12-29T11:01:26.975Z,9.33
2018-12-29T11:04:10.129Z,9.46
2018-12-29T11:06:51.015Z,9.37
2018-12-29T11:18:20.164Z,9.41
2018-12-29T11:21:00.045Z,9.27
2018-12-29T11:24:01.451Z,9.24
2018-12-29T11:28:57.121Z,9.09
2018-12-29T11:31:37.271Z,9.30
2018-12-29T11:34:18.268Z,9.16
2018-12-29T11:37:00.221Z,9.10
2018-12-29T11:39:43.404Z,9.26
2018-12-29T11:42:30.169Z,9.19
2018-12-29T11:44:56.219Z,9.17
2018-12-29T11:47:22.251Z,9.16
2018-12-29T11:53:31.422Z,8.95
2018-12-29T11:56:13.495Z,9.11
2018-12-29T11:58:39.616Z,9.15
2018-12-29T12:10:47.819Z,9.25
2018-12-29T12:13:29.016Z,9.21
2018-12-29T12:16:11.112Z,9.29
2018-12-29T12:18:37.253Z,9.06
2018-12-29T12:21:03.361Z,9.14
2018-12-29T12:23:43.284Z,9.17
2018-12-29T12:26:26.525Z,9.04
2018-12-29T12:32:08.745Z,9.07
2018-12-29T12:34:34.870Z,9.07
2018-12-29T12:37:17.804Z,9.04
2018-12-29T12:40:01.101Z,9.10
2018-12-29T12:43:00.948Z,9.11
2018-12-29T12:45:27.059Z,9.33
2018-12-29T12:47:53.188Z,9.17
2018-12-29T12:50:19.302Z,9.17
2018-12-29T12:53:05.380Z,9.08
2018-12-29T12:55:49.415Z,9.09
2018-12-29T12:58:30.791Z,9.10
2018-12-29T13:00:57.254Z,9.09
2018-12-29T13:03:45.085Z,9.15
2018-12-29T13:06:11.340Z,9.16
2018-12-29T13:08:57.915Z,9.04
2018-12-29T13:11:39.863Z,9.04
2018-12-29T13:17:43.263Z,8.94
2018-12-29T13:20:23.150Z,8.94
2018-12-29T13:25:40.878Z,9.03
2018-12-29T13:28:06.991Z,9.11
2018-12-29T13:33:51.139Z,9.10
2018-12-29T13:36:37.132Z,9.20
2018-12-29T13:41:57.725Z,8.95
2018-12-29T13:47:42.145Z,9.08
2018-12-29T13:50:25.765Z,9.16
2018-12-29T14:09:18.060Z,9.12
2018-12-29T14:11:44.211Z,9.04
2018-12-29T14:14:10.312Z,9.06
2018-12-29T14:26:07.057Z,9.01
2018-12-29T14:28:33.166Z,8.98
2018-12-29T14:31:14.381Z,8.97
2018-12-29T14:46:07.440Z,9.01
2018-12-29T14:48:47.556Z,8.86
2018-12-29T14:51:13.719Z,8.93
2018-12-29T14:53:39.814Z,8.86
2018-12-29T14:59:11.129Z,8.79
2018-12-29T15:10:50.449Z,8.80
2018-12-29T15:13:25.171Z,8.73
2018-12-29T15:16:06.075Z,8.71
2018-12-29T15:18:49.254Z,8.72
2018-12-29T15:24:18.924Z,8.61
2018-12-29T15:27:01.935Z,8.64
2018-12-29T15:29:43.897Z,8.59
2018-12-29T15:32:26.033Z,8.63
2018-12-29T15:35:13.997Z,8.65
2018-12-29T15:37:40.228Z,8.63
2018-12-29T15:44:07.120Z,8.66
2018-12-29T15:46:50.339Z,8.62
2018-12-29T15:49:16.457Z,8.58
2018-12-29T15:51:56.596Z,8.58
2018-12-29T15:54:42.727Z,8.50
2018-12-29T15:57:29.168Z,8.56
2018-12-29T16:00:12.440Z,8.64
2018-12-29T16:02:52.340Z,8.64
2018-12-29T16:08:20.009Z,8.51
2018-12-29T16:11:00.738Z,8.38
2018-12-29T16:13:46.551Z,8.47
2018-12-29T16:16:12.794Z,8.48
2018-12-29T16:18:58.907Z,8.53
2018-12-29T16:21:24.259Z,8.48
2018-12-29T16:23:50.399Z,8.50
2018-12-29T16:26:36.379Z,8.46
2018-12-29T16:35:24.661Z,8.36
2018-12-29T16:37:51.076Z,8.32
2018-12-29T16:40:30.867Z,8.30
2018-12-29T16:43:10.756Z,8.18
2018-12-29T16:45:54.554Z,8.14
2018-12-29T16:48:37.703Z,8.14
2018-12-29T16:51:20.691Z,8.28
2018-12-29T16:54:07.028Z,8.27
2018-12-29T16:56:33.539Z,8.29
2018-12-29T17:02:30.036Z,8.03
2018-12-29T17:05:13.180Z,7.90
2018-12-29T17:07:53.246Z,7.86
2018-12-29T17:13:44.003Z,7.65
2018-12-29T17:16:16.967Z,7.63
2018-12-29T17:19:02.923Z,7.70
2018-12-29T17:21:29.105Z,7.62
2018-12-29T17:24:32.815Z,7.64
2018-12-29T17:27:16.003Z,7.57
2018-12-29T17:29:56.426Z,7.57
2018-12-29T17:32:39.396Z,7.68
2018-12-29T17:35:23.341Z,7.58
2018-12-29T17:37:49.508Z,7.58
2018-12-29T17:40:35.541Z,7.54
2018-12-29T17:49:44.723Z,7.42
2018-12-29T17:55:34.852Z,7.57
2018-12-29T17:58:18.025Z,7.59
2018-12-29T18:01:01.194Z,7.48
2018-12-29T18:03:44.228Z,7.45
2018-12-29T18:06:10.930Z,7.50
2018-12-29T18:12:24.617Z,7.49
2018-12-29T18:15:11.652Z,7.50
2018-12-29T18:17:38.095Z,7.53
2018-12-29T18:26:47.450Z,7.47
2018-12-29T18:29:13.598Z,7.49
2018-12-29T18:31:57.148Z,7.32
2018-12-29T18:34:23.272Z,7.34
2018-12-29T18:37:09.278Z,7.58
2018-12-29T18:39:35.409Z,7.40
2018-12-29T18:45:42.682Z,7.37
2018-12-29T18:48:08.994Z,7.43
2018-12-29T18:56:45.720Z,7.45
2018-12-29T19:02:20.968Z,7.55
2018-12-29T19:04:47.106Z,7.52
2018-12-29T19:07:21.396Z,7.54
2018-12-29T19:09:47.572Z,7.53
2018-12-29T19:16:11.309Z,7.50
2018-12-29T19:18:41.437Z,7.60
2018-12-29T19:21:12.041Z,7.70
2018-12-29T19:24:27.971Z,7.86
2018-12-29T19:27:11.057Z,7.83
2018-12-29T19:29:55.370Z,7.77
2018-12-29T19:35:46.971Z,7.92
2018-12-29T19:38:21.368Z,7.82
2018-12-29T19:41:07.379Z,7.84
2018-12-29T19:43:34.118Z,7.82
2018-12-29T19:46:08.347Z,7.81
2018-12-29T19:48:54.363Z,7.83
2018-12-29T19:51:20.503Z,7.74
2018-12-29T19:54:10.063Z,7.73
2018-12-29T19:59:40.334Z,7.83
2018-12-29T20:05:34.958Z,7.72
2018-12-29T20:08:21.739Z,7.79
2018-12-29T20:11:07.978Z,7.76
2018-12-29T20:13:34.129Z,7.84
2018-12-29T20:16:20.157Z,7.87
2018-12-29T20:18:46.265Z,7.88
2018-12-29T20:21:27.987Z,7.96
2018-12-29T20:23:54.072Z,8.01
2018-12-29T20:26:40.117Z,7.96
2018-12-29T20:29:26.385Z,7.98
2018-12-29T20:35:08.777Z,7.99
2018-12-29T20:37:49.830Z,8.06
2018-12-29T20:40:15.980Z,8.07
2018-12-29T20:42:59.884Z,8.15
2018-12-29T20:45:26.052Z,8.15
2018-12-29T20:48:13.029Z,8.05
2018-12-29T20:50:56.097Z,8.07
2018-12-29T20:53:37.291Z,8.16
2018-12-29T20:56:21.361Z,8.13
2018-12-29T20:59:04.749Z,8.06
2018-12-29T21:01:30.887Z,8.13
2018-12-29T21:04:38.877Z,8.08
2018-12-29T21:07:20.168Z,8.12
2018-12-29T21:09:46.291Z,8.15
2018-12-29T21:12:12.319Z,8.08
2018-12-29T21:18:18.431Z,8.20
2018-12-29T21:20:44.890Z,8.08
2018-12-29T21:23:28.549Z,8.22
2018-12-29T21:26:14.636Z,8.22
2018-12-29T21:32:04.008Z,8.67
2018-12-29T21:34:30.147Z,8.91
2018-12-29T21:37:18.115Z,8.94
2018-12-29T21:40:00.251Z,8.87
2018-12-29T21:42:47.232Z,8.92
2018-12-29T21:48:19.755Z,9.00
2018-12-29T21:57:37.922Z,8.72
2018-12-29T22:00:23.974Z,8.72
2018-12-29T22:02:50.151Z,8.64
2018-12-29T22:05:36.177Z,8.61
2018-12-29T22:08:17.766Z,8.62
2018-12-29T22:10:59.653Z,8.59
2018-12-29T22:13:42.780Z,8.61
2018-12-29T22:16:33.778Z,8.60
2018-12-29T22:19:18.077Z,8.51
2018-12-29T22:22:01.121Z,8.64
2018-12-29T22:24:27.297Z,8.61
2018-12-29T22:27:13.475Z,8.70
2018-12-29T22:33:02.681Z,8.50
2018-12-29T22:35:50.803Z,8.57
2018-12-29T22:38:33.133Z,8.50
2018-12-29T22:41:14.183Z,8.57
2018-12-29T22:50:15.719Z,8.60
2018-12-29T22:56:27.200Z,8.70
2018-12-29T22:59:13.489Z,8.70
2018-12-29T23:01:56.665Z,8.74
2018-12-29T23:07:46.601Z,8.83
2018-12-29T23:10:34.520Z,8.81
2018-12-29T23:15:58.352Z,8.91
2018-12-29T23:18:40.859Z,9.04
2018-12-29T23:21:06.998Z,8.91
2018-12-29T23:23:54.027Z,9.03
2018-12-29T23:30:07.745Z,8.97
2018-12-29T23:32:33.914Z,8.90
2018-12-29T23:35:20.659Z,8.96
2018-12-29T23:37:48.305Z,8.92
2018-12-29T23:40:34.443Z,8.93
2018-12-29T23:43:16.078Z,8.85
2018-12-29T23:45:42.236Z,8.92
2018-12-29T23:51:34.974Z,8.87
